createdAt,value
2022-10-25T00:01:03.582Z,99672.78
2022-10-25T00:03:34.610Z,99677.09
2022-10-25T00:06:04.893Z,99677.09
2022-10-25T00:08:33.444Z,99662.56
2022-10-25T00:11:02.059Z,99671.97
2022-10-25T00:13:30.663Z,99672.03
2022-10-25T00:15:59.389Z,99678.03
2022-10-25T00:18:28.051Z,99684.06
2022-10-25T00:20:58.094Z,99691.00
2022-10-25T00:23:26.724Z,99686.75
2022-10-25T00:26:02.962Z,99696.22
2022-10-25T00:28:31.541Z,99703.13
2022-10-25T00:31:03.283Z,99702.31
2022-10-25T00:33:32.471Z,99689.47
2022-10-25T00:36:07.564Z,99691.19
2022-10-25T00:38:36.870Z,99673.28
2022-10-25T00:41:07.221Z,99674.09
2022-10-25T00:43:38.083Z,99681.06
2022-10-25T00:46:12.796Z,99676.03
2022-10-25T00:48:44.100Z,99688.06
2022-10-25T00:51:14.192Z,99688.94
2022-10-25T00:53:44.169Z,99682.16
2022-10-25T00:56:18.810Z,99683.03
2022-10-25T00:58:51.109Z,99693.38
2022-10-25T01:01:20.509Z,99685.00
2022-10-25T01:03:51.664Z,99690.22
2022-10-25T01:06:29.751Z,99679.09
2022-10-25T01:08:59.244Z,99670.53
2022-10-25T01:11:27.812Z,99661.16
2022-10-25T01:13:58.814Z,99648.44
2022-10-25T01:16:34.283Z,99650.97
2022-10-25T01:19:18.419Z,99641.47
2022-10-25T01:21:51.483Z,99635.47
2022-10-25T01:24:54.761Z,99644.00
2022-10-25T01:27:50.548Z,99661.09
2022-10-25T01:30:22.872Z,99667.91
2022-10-25T01:33:06.444Z,99679.84
2022-10-25T01:35:44.321Z,99687.50
2022-10-25T01:38:28.904Z,99691.75
2022-10-25T01:41:08.793Z,99690.91
2022-10-25T01:43:48.701Z,99708.00
2022-10-25T01:46:23.973Z,99707.09
2022-10-25T01:49:00.951Z,99714.75
2022-10-25T01:51:30.080Z,99701.00
2022-10-25T01:53:58.842Z,99713.00
2022-10-25T01:56:31.501Z,99714.69
2022-10-25T01:59:26.665Z,99713.84
2022-10-25T02:02:07.204Z,99695.00
2022-10-25T02:04:51.814Z,99691.56
2022-10-25T02:07:28.250Z,99686.47
2022-10-25T02:12:49.197Z,99679.69
2022-10-25T02:15:26.093Z,99681.44
2022-10-25T02:18:01.020Z,99679.72
2022-10-25T02:20:36.193Z,99679.69
2022-10-25T02:23:07.393Z,99686.56
2022-10-25T02:25:39.144Z,99692.56
2022-10-25T02:28:14.413Z,99702.84
2022-10-25T02:30:45.640Z,99700.31
2022-10-25T02:33:15.761Z,99705.50
2022-10-25T02:35:45.760Z,99703.81
2022-10-25T02:38:14.561Z,99708.97
2022-10-25T02:40:43.170Z,99703.88
2022-10-25T02:43:13.269Z,99697.09
2022-10-25T02:45:41.898Z,99697.09
2022-10-25T02:48:10.429Z,99698.81
2022-10-25T02:50:39.017Z,99681.03
2022-10-25T02:53:09.034Z,99702.34
2022-10-25T02:55:38.984Z,99695.59
2022-10-25T02:58:07.570Z,99693.97
2022-10-25T03:00:36.231Z,99704.28
2022-10-25T03:03:05.223Z,99703.47
2022-10-25T03:06:24.257Z,99706.97
2022-10-25T03:09:19.980Z,99711.22
2022-10-25T03:11:53.804Z,99707.03
2022-10-25T03:14:22.373Z,99706.31
2022-10-25T03:17:16.433Z,99702.09
2022-10-25T03:20:11.305Z,99710.66
2022-10-25T03:22:42.734Z,99715.81
2022-10-25T03:25:13.181Z,99711.53
2022-10-25T03:27:42.980Z,99726.00
2022-10-25T03:30:13.922Z,99730.31
2022-10-25T03:33:07.645Z,99733.78
2022-10-25T03:35:37.534Z,99719.31
2022-10-25T03:38:06.198Z,99721.06
2022-10-25T03:40:36.266Z,99718.53
2022-10-25T03:43:30.276Z,99721.94
2022-10-25T03:46:00.330Z,99711.69
2022-10-25T03:48:29.025Z,99703.16
2022-10-25T03:50:58.505Z,99695.44
2022-10-25T03:53:33.687Z,99695.44
2022-10-25T03:56:04.519Z,99693.72
2022-10-25T03:58:58.585Z,99691.19
2022-10-25T04:01:27.309Z,99692.06
2022-10-25T04:04:02.024Z,99697.19
2022-10-25T04:06:31.517Z,99698.88
2022-10-25T04:09:04.337Z,99689.47
2022-10-25T04:11:59.523Z,99678.31
2022-10-25T04:14:53.788Z,99680.06
2022-10-25T04:17:25.053Z,99694.59
2022-10-25T04:19:53.627Z,99701.41
2022-10-25T04:22:47.564Z,99696.38
2022-10-25T04:25:16.266Z,99698.97
2022-10-25T04:27:46.710Z,99696.47
2022-10-25T04:30:17.637Z,99706.75
2022-10-25T04:32:46.535Z,99703.38
2022-10-25T04:35:15.608Z,99711.97
2022-10-25T04:37:47.540Z,99717.13
2022-10-25T04:40:17.483Z,99729.09
2022-10-25T04:42:51.377Z,99720.56
2022-10-25T04:45:21.611Z,99726.56
2022-10-25T04:47:50.345Z,99732.50
2022-10-25T04:50:45.303Z,99721.38
2022-10-25T04:53:39.598Z,99723.13
2022-10-25T04:56:15.279Z,99720.56
2022-10-25T04:58:45.240Z,99717.97
2022-10-25T05:01:18.706Z,99726.47
2022-10-25T05:04:12.426Z,99723.88
2022-10-25T05:06:46.129Z,99710.25
2022-10-25T05:09:14.807Z,99722.19
2022-10-25T05:12:33.329Z,99730.72
2022-10-25T05:15:24.347Z,99735.84
2022-10-25T05:17:58.558Z,99736.72
2022-10-25T05:20:55.597Z,99752.97
2022-10-25T05:23:26.268Z,99744.50
2022-10-25T05:26:03.020Z,99750.53
2022-10-25T05:28:33.417Z,99741.19
2022-10-25T05:34:11.097Z,99754.81
2022-10-25T05:37:04.657Z,99744.56
2022-10-25T05:39:33.817Z,99741.16
2022-10-25T05:42:06.739Z,99747.09
2022-10-25T05:44:37.027Z,99751.31
2022-10-25T05:47:07.549Z,99758.97
2022-10-25T05:50:02.659Z,99766.59
2022-10-25T05:52:32.906Z,99767.44
2022-10-25T05:55:01.628Z,99774.25
2022-10-25T05:57:57.128Z,99774.28
2022-10-25T06:00:26.007Z,99778.53
2022-10-25T06:02:56.047Z,99779.38
2022-10-25T06:05:49.476Z,99794.75
2022-10-25T06:08:43.717Z,99802.44
2022-10-25T06:11:39.088Z,99794.78
2022-10-25T06:14:12.468Z,99787.16
2022-10-25T06:17:08.403Z,99788.81
2022-10-25T06:20:04.117Z,99792.28
2022-10-25T06:22:57.906Z,99811.03
2022-10-25T06:25:26.627Z,99813.59
2022-10-25T06:27:55.851Z,99805.06
2022-10-25T06:30:24.450Z,99811.00
2022-10-25T06:32:57.672Z,99810.16
2022-10-25T06:35:30.137Z,99824.59
2022-10-25T06:38:23.739Z,99824.59
2022-10-25T06:41:20.292Z,99828.84
2022-10-25T06:44:14.366Z,99822.75
2022-10-25T06:47:17.525Z,99802.22
2022-10-25T06:50:11.342Z,99810.75
2022-10-25T06:52:42.625Z,99807.31
2022-10-25T06:55:36.755Z,99791.91
2022-10-25T06:58:05.289Z,99797.88
2022-10-25T07:00:58.299Z,99802.97
2022-10-25T07:03:35.382Z,99792.72
2022-10-25T07:06:35.908Z,99808.97
2022-10-25T07:09:31.809Z,99802.97
2022-10-25T07:12:25.597Z,99800.44
2022-10-25T07:14:58.313Z,99800.53
2022-10-25T07:17:27.172Z,99825.25
2022-10-25T07:20:00.459Z,99820.97
2022-10-25T07:22:28.940Z,99820.91
2022-10-25T07:25:24.009Z,99834.59
2022-10-25T07:28:01.518Z,99843.97
2022-10-25T07:30:55.567Z,99846.56
2022-10-25T07:33:27.305Z,99844.00
2022-10-25T07:36:16.671Z,99848.22
2022-10-25T07:38:46.009Z,99845.56
2022-10-25T07:41:21.058Z,99845.56
2022-10-25T07:44:17.454Z,99854.97
2022-10-25T07:47:12.609Z,99850.69
2022-10-25T07:50:07.028Z,99853.22
2022-10-25T07:53:00.741Z,99861.56
2022-10-25T07:55:35.093Z,99852.91
2022-10-25T07:58:07.070Z,99859.59
2022-10-25T08:01:04.095Z,99856.81
2022-10-25T08:03:33.359Z,99842.88
2022-10-25T08:06:03.028Z,99846.91
2022-10-25T08:08:31.390Z,99855.97
2022-10-25T08:11:00.493Z,99841.22
2022-10-25T08:13:30.331Z,99842.78
2022-10-25T08:15:58.900Z,99841.72
2022-10-25T08:18:27.872Z,99832.09
2022-10-25T08:21:02.478Z,99845.53
2022-10-25T08:23:32.620Z,99848.75
2022-10-25T08:26:01.304Z,99847.69
2022-10-25T08:28:31.835Z,99844.84
2022-10-25T08:31:01.446Z,99841.34
2022-10-25T08:33:30.730Z,99838.44
2022-10-25T08:36:02.290Z,99844.38
2022-10-25T08:38:31.074Z,99847.56
2022-10-25T08:41:07.077Z,99846.50
2022-10-25T08:43:55.767Z,99846.31
2022-10-25T08:46:29.049Z,99853.88
2022-10-25T08:49:10.754Z,99848.47
2022-10-25T08:51:42.190Z,99855.28
2022-10-25T08:54:22.799Z,99842.56
2022-10-25T08:57:10.686Z,99842.34
2022-10-25T08:59:51.960Z,99847.63
2022-10-25T09:02:35.123Z,99845.63
2022-10-25T09:05:03.959Z,99854.22
2022-10-25T09:07:52.153Z,99847.56
2022-10-25T09:10:37.309Z,99841.50
2022-10-25T09:13:43.759Z,99843.72
2022-10-25T09:16:50.280Z,99844.34
2022-10-25T09:19:33.850Z,99841.16
2022-10-25T09:22:30.422Z,99839.13
2022-10-25T09:25:14.051Z,99851.78
2022-10-25T09:27:53.622Z,99858.31
2022-10-25T09:30:22.819Z,99850.28
2022-10-25T09:32:56.966Z,99857.06
2022-10-25T09:35:29.792Z,99853.94
2022-10-25T09:38:03.761Z,99862.78
2022-10-25T09:41:01.730Z,99861.91
2022-10-25T09:44:01.743Z,99858.09
2022-10-25T09:46:38.953Z,99865.59
2022-10-25T09:49:38.901Z,99866.38
2022-10-25T09:52:21.019Z,99865.97
2022-10-25T09:55:32.731Z,99865.91
2022-10-25T09:58:30.604Z,99864.91
2022-10-25T10:01:06.352Z,99869.72
2022-10-25T10:03:38.191Z,99879.41
2022-10-25T10:06:17.322Z,99869.78
2022-10-25T10:08:52.692Z,99878.97
2022-10-25T10:11:24.984Z,99874.63
2022-10-25T10:14:28.310Z,99866.63
2022-10-25T10:17:24.752Z,99858.63
2022-10-25T10:20:17.993Z,99850.06
2022-10-25T10:22:53.676Z,99858.75
2022-10-25T10:25:26.881Z,99868.88
2022-10-25T10:27:59.761Z,99866.72
2022-10-25T10:30:31.181Z,99869.31
2022-10-25T10:33:03.321Z,99873.25
2022-10-25T10:35:34.644Z,99872.94
2022-10-25T10:38:16.216Z,99872.50
2022-10-25T10:40:47.872Z,99866.53
2022-10-25T10:43:31.195Z,99867.47
2022-10-25T10:46:05.811Z,99863.00
2022-10-25T10:48:41.883Z,99858.94
2022-10-25T10:51:32.021Z,99855.94
2022-10-25T10:54:23.218Z,99864.50
2022-10-25T10:57:00.946Z,99859.22
2022-10-25T10:59:39.127Z,99863.47
2022-10-25T11:02:23.928Z,99861.97
2022-10-25T11:04:54.871Z,99862.31
2022-10-25T11:07:30.693Z,99859.97
2022-10-25T11:10:21.235Z,99863.03
2022-10-25T11:13:07.840Z,99858.06
2022-10-25T11:15:50.797Z,99851.97
2022-10-25T11:18:28.664Z,99848.41
2022-10-25T11:21:06.367Z,99844.56
2022-10-25T11:23:46.916Z,99843.16
2022-10-25T11:26:25.247Z,99837.97
2022-10-25T11:29:04.126Z,99825.59
2022-10-25T11:31:47.456Z,99836.81
2022-10-25T11:34:25.669Z,99834.28
2022-10-25T11:37:07.842Z,99824.69
2022-10-25T11:39:53.215Z,99830.44
2022-10-25T11:42:58.069Z,99835.19
2022-10-25T11:45:52.254Z,99832.91
2022-10-25T11:48:54.128Z,99830.06
2022-10-25T11:51:32.219Z,99829.13
2022-10-25T11:54:13.815Z,99821.50
2022-10-25T11:56:55.531Z,99826.94
2022-10-25T11:59:35.941Z,99816.16
2022-10-25T12:02:22.654Z,99818.78
2022-10-25T12:05:15.209Z,99832.13
2022-10-25T12:07:51.468Z,99829.72
2022-10-25T12:10:28.795Z,99829.03
2022-10-25T12:13:02.349Z,99830.81
2022-10-25T12:15:39.846Z,99833.09
2022-10-25T12:18:15.907Z,99829.03
2022-10-25T12:20:47.897Z,99834.59
2022-10-25T12:23:20.277Z,99829.53
2022-10-25T12:25:52.099Z,99808.50
2022-10-25T12:28:29.328Z,99826.94
2022-10-25T12:31:03.626Z,99822.94
2022-10-25T12:33:38.312Z,99825.19
2022-10-25T12:36:13.650Z,99826.41
2022-10-25T12:38:42.938Z,99834.84
2022-10-25T12:41:19.372Z,99839.28
2022-10-25T12:44:04.455Z,99840.56
2022-10-25T12:46:55.058Z,99845.63
2022-10-25T12:49:58.633Z,99842.69
2022-10-25T12:52:34.056Z,99844.06
2022-10-25T12:55:31.726Z,99844.78
2022-10-25T12:58:14.318Z,99843.25
2022-10-25T13:01:01.923Z,99850.63
2022-10-25T13:04:12.795Z,99851.78
2022-10-25T13:06:45.916Z,99851.69
2022-10-25T13:09:17.435Z,99851.00
2022-10-25T13:12:01.796Z,99849.44
2022-10-25T13:14:33.521Z,99859.94
2022-10-25T13:17:23.960Z,99866.06
2022-10-25T13:19:54.986Z,99863.38
2022-10-25T13:22:37.787Z,99868.34
2022-10-25T13:25:19.648Z,99870.75
2022-10-25T13:28:10.002Z,99872.34
2022-10-25T13:30:38.774Z,99872.41
2022-10-25T13:33:33.931Z,99878.75
2022-10-25T13:36:05.779Z,99875.25
2022-10-25T13:38:39.943Z,99884.53
2022-10-25T13:41:15.495Z,99889.34
2022-10-25T13:43:59.865Z,99881.91
2022-10-25T13:46:34.088Z,99876.56
2022-10-25T13:49:06.144Z,99877.50
2022-10-25T13:51:34.618Z,99872.53
2022-10-25T13:54:11.647Z,99864.97
2022-10-25T13:56:52.635Z,99863.84
2022-10-25T13:59:56.943Z,99862.81
2022-10-25T14:02:25.815Z,99870.00
2022-10-25T14:04:54.267Z,99861.19
2022-10-25T14:07:44.840Z,99872.03
2022-10-25T14:10:30.429Z,99874.31
2022-10-25T14:13:16.400Z,99873.06
2022-10-25T14:15:55.888Z,99871.13
2022-10-25T14:18:25.377Z,99870.72
2022-10-25T14:20:57.476Z,99877.81
2022-10-25T14:23:33.358Z,99873.94
2022-10-25T14:26:06.608Z,99880.31
2022-10-25T14:28:36.389Z,99890.03
2022-10-25T14:31:07.171Z,99890.31
2022-10-25T14:33:40.890Z,99897.34
2022-10-25T14:36:13.126Z,99897.53
2022-10-25T14:38:52.580Z,99901.19
2022-10-25T14:41:25.497Z,99898.03
2022-10-25T14:43:54.725Z,99899.09
2022-10-25T14:46:24.551Z,99896.50
2022-10-25T14:48:58.139Z,99878.56
2022-10-25T14:51:29.809Z,99874.25
2022-10-25T14:54:02.957Z,99871.59
2022-10-25T14:56:37.537Z,99872.47
2022-10-25T14:59:17.625Z,99875.84
2022-10-25T15:01:54.364Z,99881.00
2022-10-25T15:04:34.389Z,99885.50
2022-10-25T15:07:04.511Z,99888.28
2022-10-25T15:09:49.032Z,99881.66
2022-10-25T15:12:21.647Z,99885.28
2022-10-25T15:14:50.256Z,99881.19
2022-10-25T15:17:28.620Z,99886.50
2022-10-25T15:20:03.066Z,99886.81
2022-10-25T15:22:34.345Z,99890.59
2022-10-25T15:25:02.915Z,99891.81
2022-10-25T15:27:41.960Z,99893.91
2022-10-25T15:30:36.267Z,99892.56
2022-10-25T15:33:09.630Z,99897.91
2022-10-25T15:35:47.689Z,99895.56
2022-10-25T15:38:17.989Z,99898.28
2022-10-25T15:40:47.348Z,99902.84
2022-10-25T15:43:17.537Z,99903.16
2022-10-25T15:45:47.028Z,99905.03
2022-10-25T15:48:17.595Z,99904.41
2022-10-25T15:50:50.238Z,99912.22
2022-10-25T15:53:18.763Z,99902.97
2022-10-25T15:55:47.516Z,99906.44
2022-10-25T15:58:17.607Z,99911.66
2022-10-25T16:00:48.301Z,99909.91
2022-10-25T16:03:22.548Z,99919.44
2022-10-25T16:05:52.336Z,99917.03
2022-10-25T16:08:20.590Z,99915.44
2022-10-25T16:10:49.328Z,99909.47
2022-10-25T16:13:27.597Z,99912.19
2022-10-25T16:15:56.337Z,99915.75
2022-10-25T16:20:58.188Z,99933.16
2022-10-25T16:23:28.349Z,99928.22
2022-10-25T16:25:57.273Z,99930.94
2022-10-25T16:28:27.045Z,99937.03
2022-10-25T16:30:55.543Z,99945.59
2022-10-25T16:33:23.969Z,99942.97
2022-10-25T16:35:52.980Z,99950.75
2022-10-25T16:38:21.459Z,99953.44
2022-10-25T16:40:50.101Z,99944.94
2022-10-25T16:43:19.048Z,99946.72
2022-10-25T16:45:49.030Z,99950.25
2022-10-25T16:48:17.579Z,99951.09
2022-10-25T16:50:46.176Z,99959.78
2022-10-25T16:53:16.351Z,99958.28
2022-10-25T16:55:45.013Z,99957.44
2022-10-25T16:58:13.558Z,99956.66
2022-10-25T17:00:42.376Z,99951.53
2022-10-25T17:03:12.720Z,99955.00
2022-10-25T17:05:41.330Z,99954.16
2022-10-25T17:08:09.835Z,99951.59
2022-10-25T17:10:42.472Z,99956.72
2022-10-25T17:13:16.063Z,99953.22
2022-10-25T17:15:44.750Z,99955.81
2022-10-25T17:18:19.615Z,99952.41
2022-10-25T17:20:49.288Z,99955.09
2022-10-25T17:23:17.579Z,99961.19
2022-10-25T17:25:46.009Z,99961.31
2022-10-25T17:28:14.650Z,99958.84
2022-10-25T17:30:43.449Z,99965.00
2022-10-25T17:33:12.106Z,99972.78
2022-10-25T17:35:43.908Z,99978.81
2022-10-25T17:38:12.909Z,99974.63
2022-10-25T17:40:42.089Z,99964.44
2022-10-25T17:43:11.888Z,99966.13
2022-10-25T17:45:40.149Z,99963.53
2022-10-25T17:48:08.689Z,99978.88
2022-10-25T17:50:41.104Z,99973.78
2022-10-25T17:53:11.635Z,99978.13
2022-10-25T17:55:41.518Z,99974.72
2022-10-25T17:58:10.058Z,99978.19
2022-10-25T18:00:38.492Z,99971.31
2022-10-25T18:03:07.037Z,99970.44
2022-10-25T18:05:36.130Z,99961.09
2022-10-25T18:08:04.697Z,99973.84
2022-10-25T18:10:36.309Z,99966.13
2022-10-25T18:13:04.829Z,99967.00
2022-10-25T18:15:35.286Z,99966.13
2022-10-25T18:18:03.795Z,99961.03
2022-10-25T18:20:32.719Z,99971.31
2022-10-25T18:23:01.327Z,99962.75
2022-10-25T18:25:29.895Z,99965.34
2022-10-25T18:27:59.896Z,99960.25
2022-10-25T18:30:28.609Z,99969.66
2022-10-25T18:32:57.147Z,99965.44
2022-10-25T18:35:25.648Z,99966.28
2022-10-25T18:37:54.203Z,99963.72
2022-10-25T18:40:22.887Z,99967.22
2022-10-25T18:42:51.416Z,99968.03
2022-10-25T18:45:21.500Z,99978.31
2022-10-25T18:47:53.486Z,99971.50
2022-10-25T18:50:22.049Z,99976.66
2022-10-25T18:52:50.575Z,99974.13
2022-10-25T18:55:21.689Z,99980.09
2022-10-25T18:57:50.531Z,99978.41
2022-10-25T19:00:23.117Z,99983.56
2022-10-25T19:02:54.169Z,99971.66
2022-10-25T19:05:23.436Z,99969.94
2022-10-25T19:07:52.539Z,99978.44
2022-10-25T19:10:21.203Z,99980.97
2022-10-25T19:12:49.720Z,99987.81
2022-10-25T19:15:18.358Z,99989.50
2022-10-25T19:17:52.098Z,99986.91
2022-10-25T19:20:20.709Z,99985.25
2022-10-25T19:22:49.690Z,99987.00
2022-10-25T19:25:21.538Z,99987.88
2022-10-25T19:27:52.729Z,99990.47
2022-10-25T19:30:21.336Z,99993.91
2022-10-25T19:32:51.500Z,99990.47
2022-10-25T19:35:20.969Z,99988.78
2022-10-25T19:37:50.782Z,99993.91
2022-10-25T19:40:19.718Z,99986.22
2022-10-25T19:42:48.250Z,99983.72
2022-10-25T19:45:16.849Z,99979.47
2022-10-25T19:47:46.181Z,99982.03
2022-10-25T19:50:16.488Z,99982.03
2022-10-25T19:52:46.697Z,99982.88
2022-10-25T19:55:15.127Z,99990.56
2022-10-25T19:57:43.827Z,99985.44
2022-10-25T20:00:13.703Z,99998.22
2022-10-25T20:02:42.431Z,100011.88
2022-10-25T20:07:46.429Z,100005.88
2022-10-25T20:10:15.618Z,100012.72
2022-10-25T20:12:44.317Z,100005.91
2022-10-25T20:15:17.131Z,100003.34
2022-10-25T20:17:45.943Z,100004.19
2022-10-25T20:20:14.706Z,100008.44
2022-10-25T20:22:43.681Z,100005.91
2022-10-25T20:27:42.316Z,100014.41
2022-10-25T20:30:11.455Z,100014.44
2022-10-25T20:32:40.030Z,100011.88
2022-10-25T20:35:09.036Z,100014.44
2022-10-25T20:37:37.671Z,100016.13
2022-10-25T20:40:08.069Z,100009.31
2022-10-25T20:42:38.157Z,100014.41
2022-10-25T20:45:07.395Z,100017.84
2022-10-25T20:47:35.945Z,100009.31
2022-10-25T20:50:04.748Z,100021.25
2022-10-25T20:52:34.776Z,100028.06
2022-10-25T20:55:04.257Z,100028.91
2022-10-25T20:57:33.760Z,100034.88
2022-10-25T21:00:03.614Z,100036.59
2022-10-25T21:02:32.081Z,100034.88
2022-10-25T21:05:00.800Z,100034.88
2022-10-25T21:07:31.297Z,100034.03
2022-10-25T21:10:00.221Z,100034.88
2022-10-25T21:12:28.827Z,100033.16
2022-10-25T21:14:57.566Z,100031.47
2022-10-25T21:17:27.468Z,100034.88
2022-10-25T21:19:56.070Z,100031.50
2022-10-25T21:22:24.760Z,100034.88
2022-10-25T21:24:53.447Z,100029.78
2022-10-25T21:27:21.959Z,100034.84
2022-10-25T21:29:51.021Z,100036.56
2022-10-25T21:32:19.551Z,100035.69
2022-10-25T21:34:49.630Z,100032.28
2022-10-25T21:37:18.233Z,100044.22
2022-10-25T21:39:48.088Z,100031.41
2022-10-25T21:42:16.698Z,100039.94
2022-10-25T21:44:45.269Z,100036.50
2022-10-25T21:47:13.938Z,100036.50
2022-10-25T21:49:42.369Z,100027.13
2022-10-25T21:52:12.799Z,100042.44
2022-10-25T21:54:41.380Z,100040.69
2022-10-25T21:57:10.476Z,100029.59
2022-10-25T21:59:39.038Z,100031.28
2022-10-25T22:02:07.926Z,100031.25
2022-10-25T22:04:36.566Z,100036.38
2022-10-25T22:07:05.201Z,100032.06
2022-10-25T22:09:35.113Z,100045.69
2022-10-25T22:12:03.950Z,100044.81
2022-10-25T22:14:32.776Z,100044.78
2022-10-25T22:17:01.295Z,100053.31
2022-10-25T22:19:29.870Z,100044.78
2022-10-25T22:21:58.500Z,100053.31
2022-10-25T22:24:27.097Z,100046.50
2022-10-25T22:26:57.119Z,100049.91
2022-10-25T22:29:25.755Z,100042.22
2022-10-25T22:31:54.299Z,100053.31
2022-10-25T22:34:22.829Z,100042.97
2022-10-25T22:36:51.790Z,100048.91
2022-10-25T22:39:20.278Z,100045.53
2022-10-25T22:41:53.098Z,100050.63
2022-10-25T22:44:23.224Z,100049.75
2022-10-25T22:46:51.765Z,100054.78
2022-10-25T22:49:21.987Z,100054.78
2022-10-25T22:51:50.409Z,100053.03
2022-10-25T22:54:18.938Z,100055.59
2022-10-25T22:56:47.569Z,100054.78
2022-10-25T22:59:16.076Z,100054.75
2022-10-25T23:01:45.926Z,100054.72
2022-10-25T23:04:14.916Z,100052.91
2022-10-25T23:06:43.378Z,100056.38
2022-10-25T23:09:12.599Z,100057.19
2022-10-25T23:11:42.071Z,100058.03
2022-10-25T23:14:14.997Z,100052.84
2022-10-25T23:16:48.007Z,100056.25
2022-10-25T23:19:16.711Z,100056.28
2022-10-25T23:21:45.303Z,100052.84
2022-10-25T23:24:13.995Z,100058.03
2022-10-25T23:26:42.570Z,100061.44
2022-10-25T23:29:13.646Z,100059.69
2022-10-25T23:31:42.309Z,100051.06
2022-10-25T23:34:12.613Z,100045.91
2022-10-25T23:36:41.668Z,100044.19
2022-10-25T23:39:10.129Z,100052.72
2022-10-25T23:41:39.315Z,100058.66
2022-10-25T23:44:07.809Z,100056.03
2022-10-25T23:46:36.491Z,100052.63
2022-10-25T23:49:05.028Z,100044.16
2022-10-25T23:51:35.136Z,100045.06
2022-10-25T23:54:04.048Z,100047.63
2022-10-25T23:56:32.597Z,100049.31
2022-10-25T23:59:01.253Z,100052.72
